sensor_id;sensor_type;location;lat;lon;timestamp;pressure;altitude;pressure_sealevel;temperature;humidity
17505;BME280;8870;50.950;11.762;2023-06-26T00:01:05;98345.72;;;20.74;100.00
17505;BME280;8870;50.950;11.762;2023-06-26T00:06:24;98340.47;;;20.72;100.00
17505;BME280;8870;50.950;11.762;2023-06-26T00:11:56;98328.69;;;20.72;100.00
17505;BME280;8870;50.950;11.762;2023-06-26T00:17:18;98338.22;;;20.69;100.00
17505;BME280;8870;50.950;11.762;2023-06-26T00:22:50;98335.56;;;20.62;100.00
17505;BME280;8870;50.950;11.762;2023-06-26T00:28:20;98324.69;;;20.56;100.00
17505;BME280;8870;50.950;11.762;2023-06-26T00:33:48;98326.03;;;20.46;100.00
17505;BME280;8870;50.950;11.762;2023-06-26T00:39:19;98320.06;;;20.38;100.00
17505;BME280;8870;50.950;11.762;2023-06-26T00:44:42;98322.41;;;20.34;100.00
17505;BME280;8870;50.950;11.762;2023-06-26T00:50:16;98318.69;;;20.28;100.00
17505;BME280;8870;50.950;11.762;2023-06-26T00:55:35;98316.22;;;20.20;100.00
17505;BME280;8870;50.950;11.762;2023-06-26T01:01:05;98316.47;;;20.19;100.00
17505;BME280;8870;50.950;11.762;2023-06-26T01:06:28;98303.84;;;20.17;100.00
17505;BME280;8870;50.950;11.762;2023-06-26T01:12:01;98302.41;;;20.15;100.00
17505;BME280;8870;50.950;11.762;2023-06-26T01:17:19;98310.00;;;20.13;100.00
17505;BME280;8870;50.950;11.762;2023-06-26T01:23:03;98303.28;;;20.09;100.00
17505;BME280;8870;50.950;11.762;2023-06-26T01:28:27;98301.69;;;20.01;100.00
17505;BME280;8870;50.950;11.762;2023-06-26T01:34:00;98296.28;;;19.94;100.00
17505;BME280;8870;50.950;11.762;2023-06-26T01:39:19;98290.44;;;19.91;100.00
17505;BME280;8870;50.950;11.762;2023-06-26T01:44:56;98289.63;;;19.83;100.00
17505;BME280;8870;50.950;11.762;2023-06-26T01:50:18;98285.91;;;19.78;100.00
17505;BME280;8870;50.950;11.762;2023-06-26T01:55:53;98283.69;;;19.68;100.00
17505;BME280;8870;50.950;11.762;2023-06-26T02:01:14;98271.13;;;19.60;100.00
17505;BME280;8870;50.950;11.762;2023-06-26T02:06:45;98261.84;;;19.43;100.00
17505;BME280;8870;50.950;11.762;2023-06-26T02:12:07;98259.19;;;19.29;100.00
17505;BME280;8870;50.950;11.762;2023-06-26T02:17:42;98265.34;;;19.24;100.00
17505;BME280;8870;50.950;11.762;2023-06-26T02:23:03;98269.13;;;19.23;100.00
17505;BME280;8870;50.950;11.762;2023-06-26T02:28:34;98274.63;;;19.17;100.00
17505;BME280;8870;50.950;11.762;2023-06-26T02:34:02;98272.59;;;19.05;100.00
17505;BME280;8870;50.950;11.762;2023-06-26T02:39:34;98278.53;;;18.89;100.00
17505;BME280;8870;50.950;11.762;2023-06-26T02:44:53;98270.22;;;18.77;100.00
17505;BME280;8870;50.950;11.762;2023-06-26T02:50:26;98271.72;;;18.66;100.00
17505;BME280;8870;50.950;11.762;2023-06-26T02:55:47;98278.72;;;18.55;100.00
17505;BME280;8870;50.950;11.762;2023-06-26T03:01:19;98272.06;;;18.38;100.00
17505;BME280;8870;50.950;11.762;2023-06-26T03:06:40;98268.34;;;18.25;100.00
17505;BME280;8870;50.950;11.762;2023-06-26T03:12:12;98265.22;;;18.15;100.00
17505;BME280;8870;50.950;11.762;2023-06-26T03:17:31;98261.06;;;18.06;100.00
17505;BME280;8870;50.950;11.762;2023-06-26T03:23:09;98263.81;;;17.99;100.00
17505;BME280;8870;50.950;11.762;2023-06-26T03:28:28;98251.00;;;17.93;100.00
17505;BME280;8870;50.950;11.762;2023-06-26T03:33:58;98249.13;;;17.93;100.00
17505;BME280;8870;50.950;11.762;2023-06-26T03:39:32;98258.09;;;17.94;100.00
17505;BME280;8870;50.950;11.762;2023-06-26T03:44:51;98259.84;;;17.81;100.00
17505;BME280;8870;50.950;11.762;2023-06-26T03:50:23;98265.50;;;17.73;100.00
17505;BME280;8870;50.950;11.762;2023-06-26T03:55:44;98263.63;;;17.67;100.00
17505;BME280;8870;50.950;11.762;2023-06-26T04:01:15;98259.22;;;17.73;100.00
17505;BME280;8870;50.950;11.762;2023-06-26T04:06:37;98248.94;;;17.81;100.00
17505;BME280;8870;50.950;11.762;2023-06-26T04:12:12;98251.22;;;17.91;100.00
17505;BME280;8870;50.950;11.762;2023-06-26T04:17:31;98251.00;;;17.99;100.00
17505;BME280;8870;50.950;11.762;2023-06-26T04:23:02;98251.59;;;18.08;100.00
17505;BME280;8870;50.950;11.762;2023-06-26T04:28:24;98254.53;;;18.20;100.00
17505;BME280;8870;50.950;11.762;2023-06-26T04:33:55;98245.28;;;18.28;100.00
17505;BME280;8870;50.950;11.762;2023-06-26T04:39:15;98242.28;;;18.36;100.00
17505;BME280;8870;50.950;11.762;2023-06-26T04:44:49;98246.03;;;18.48;100.00
17505;BME280;8870;50.950;11.762;2023-06-26T04:50:08;98239.25;;;18.58;100.00
17505;BME280;8870;50.950;11.762;2023-06-26T04:55:40;98233.09;;;18.69;100.00
17505;BME280;8870;50.950;11.762;2023-06-26T05:01:01;98224.66;;;18.77;100.00
17505;BME280;8870;50.950;11.762;2023-06-26T05:06:35;98222.28;;;18.88;100.00
17505;BME280;8870;50.950;11.762;2023-06-26T05:11:54;98224.78;;;18.96;100.00
17505;BME280;8870;50.950;11.762;2023-06-26T05:17:27;98222.41;;;19.06;100.00
17505;BME280;8870;50.950;11.762;2023-06-26T05:22:46;98221.06;;;19.16;100.00
17505;BME280;8870;50.950;11.762;2023-06-26T05:28:20;98224.13;;;19.26;100.00
17505;BME280;8870;50.950;11.762;2023-06-26T05:33:43;98225.31;;;19.37;100.00
17505;BME280;8870;50.950;11.762;2023-06-26T05:39:16;98220.78;;;19.49;100.00
17505;BME280;8870;50.950;11.762;2023-06-26T05:44:35;98211.84;;;19.61;100.00
17505;BME280;8870;50.950;11.762;2023-06-26T05:50:10;98215.28;;;19.75;100.00
17505;BME280;8870;50.950;11.762;2023-06-26T05:55:29;98210.53;;;19.89;100.00
17505;BME280;8870;50.950;11.762;2023-06-26T06:01:03;98213.28;;;20.07;100.00
17505;BME280;8870;50.950;11.762;2023-06-26T06:06:23;98215.63;;;20.22;100.00
17505;BME280;8870;50.950;11.762;2023-06-26T06:11:54;98208.94;;;20.37;100.00
17505;BME280;8870;50.950;11.762;2023-06-26T06:17:13;98205.94;;;20.57;100.00
17505;BME280;8870;50.950;11.762;2023-06-26T06:22:46;98200.19;;;20.77;100.00
17505;BME280;8870;50.950;11.762;2023-06-26T06:28:06;98208.34;;;20.96;100.00
17505;BME280;8870;50.950;11.762;2023-06-26T06:33:38;98198.63;;;21.12;100.00
17505;BME280;8870;50.950;11.762;2023-06-26T06:38:58;98203.16;;;21.30;100.00
17505;BME280;8870;50.950;11.762;2023-06-26T06:44:29;98196.63;;;21.54;100.00
17505;BME280;8870;50.950;11.762;2023-06-26T06:49:48;98198.06;;;21.81;100.00
17505;BME280;8870;50.950;11.762;2023-06-26T06:55:23;98192.22;;;22.01;100.00
17505;BME280;8870;50.950;11.762;2023-06-26T07:00:42;98189.41;;;22.25;100.00
17505;BME280;8870;50.950;11.762;2023-06-26T07:06:14;98193.19;;;22.47;100.00
17505;BME280;8870;50.950;11.762;2023-06-26T07:11:34;98183.16;;;22.70;100.00
17505;BME280;8870;50.950;11.762;2023-06-26T07:17:06;98168.38;;;22.88;100.00
17505;BME280;8870;50.950;11.762;2023-06-26T07:22:24;98167.75;;;23.15;100.00
17505;BME280;8870;50.950;11.762;2023-06-26T07:27:51;98168.69;;;23.38;100.00
17505;BME280;8870;50.950;11.762;2023-06-26T07:33:16;98165.72;;;23.62;100.00
17505;BME280;8870;50.950;11.762;2023-06-26T07:38:48;98160.00;;;23.85;100.00
17505;BME280;8870;50.950;11.762;2023-06-26T07:44:21;98155.69;;;24.12;100.00
17505;BME280;8870;50.950;11.762;2023-06-26T07:49:40;98157.00;;;24.31;100.00
17505;BME280;8870;50.950;11.762;2023-06-26T07:55:12;98158.91;;;24.53;100.00
17505;BME280;8870;50.950;11.762;2023-06-26T08:00:32;98148.97;;;24.74;100.00
17505;BME280;8870;50.950;11.762;2023-06-26T08:06:04;98149.34;;;24.88;100.00
17505;BME280;8870;50.950;11.762;2023-06-26T08:11:23;98145.66;;;25.05;100.00
17505;BME280;8870;50.950;11.762;2023-06-26T08:16:56;98144.19;;;25.30;100.00
17505;BME280;8870;50.950;11.762;2023-06-26T08:22:15;98140.50;;;25.51;100.00
17505;BME280;8870;50.950;11.762;2023-06-26T08:27:46;98136.22;;;25.81;99.83
17505;BME280;8870;50.950;11.762;2023-06-26T08:33:10;98135.25;;;26.03;97.86
17505;BME280;8870;50.950;11.762;2023-06-26T08:38:42;98128.16;;;26.23;94.49
17505;BME280;8870;50.950;11.762;2023-06-26T08:44:00;98131.50;;;26.40;95.42
17505;BME280;8870;50.950;11.762;2023-06-26T08:49:43;98113.59;;;26.58;92.35
17505;BME280;8870;50.950;11.762;2023-06-26T08:55:09;98126.09;;;26.82;88.55
17505;BME280;8870;50.950;11.762;2023-06-26T09:00:42;98124.47;;;26.96;81.28
17505;BME280;8870;50.950;11.762;2023-06-26T09:06:03;98116.97;;;27.12;82.53
17505;BME280;8870;50.950;11.762;2023-06-26T09:11:35;98116.94;;;27.33;76.83
17505;BME280;8870;50.950;11.762;2023-06-26T09:16:53;98115.31;;;27.47;81.60
17505;BME280;8870;50.950;11.762;2023-06-26T09:22:28;98117.50;;;27.61;73.63
17505;BME280;8870;50.950;11.762;2023-06-26T09:27:47;98124.09;;;27.75;69.04
17505;BME280;8870;50.950;11.762;2023-06-26T09:33:20;98109.09;;;27.87;62.53
17505;BME280;8870;50.950;11.762;2023-06-26T09:38:41;98104.03;;;27.99;64.62
17505;BME280;8870;50.950;11.762;2023-06-26T09:44:14;98102.41;;;28.08;65.36
17505;BME280;8870;50.950;11.762;2023-06-26T09:49:32;98093.16;;;28.23;67.15
17505;BME280;8870;50.950;11.762;2023-06-26T09:55:11;98088.38;;;28.39;66.94
17505;BME280;8870;50.950;11.762;2023-06-26T10:00:30;98086.63;;;28.49;67.12
17505;BME280;8870;50.950;11.762;2023-06-26T10:05:54;98080.19;;;28.58;66.53
17505;BME280;8870;50.950;11.762;2023-06-26T10:11:22;98082.34;;;28.67;65.34
17505;BME280;8870;50.950;11.762;2023-06-26T10:16:44;98084.91;;;28.58;67.53
17505;BME280;8870;50.950;11.762;2023-06-26T10:22:20;98074.75;;;28.48;67.23
17505;BME280;8870;50.950;11.762;2023-06-26T10:27:46;98073.16;;;28.37;67.97
17505;BME280;8870;50.950;11.762;2023-06-26T10:33:21;98064.72;;;28.52;65.20
17505;BME280;8870;50.950;11.762;2023-06-26T10:38:50;98061.25;;;28.71;62.02
17505;BME280;8870;50.950;11.762;2023-06-26T10:44:24;98052.59;;;28.83;61.00
17505;BME280;8870;50.950;11.762;2023-06-26T10:49:46;98061.69;;;28.88;60.21
17505;BME280;8870;50.950;11.762;2023-06-26T10:55:28;98051.34;;;28.99;58.50
17505;BME280;8870;50.950;11.762;2023-06-26T11:00:51;98044.28;;;29.12;57.58
17505;BME280;8870;50.950;11.762;2023-06-26T11:06:23;98033.69;;;29.19;59.70
17505;BME280;8870;50.950;11.762;2023-06-26T11:11:59;98024.38;;;29.34;56.33
17505;BME280;8870;50.950;11.762;2023-06-26T11:17:33;98015.06;;;29.49;57.25
17505;BME280;8870;50.950;11.762;2023-06-26T11:22:52;98015.72;;;29.85;58.52
17505;BME280;8870;50.950;11.762;2023-06-26T11:28:24;98015.13;;;29.88;56.09
17505;BME280;8870;50.950;11.762;2023-06-26T11:33:48;98006.84;;;30.07;52.94
17505;BME280;8870;50.950;11.762;2023-06-26T11:39:20;98003.44;;;30.29;50.98
17505;BME280;8870;50.950;11.762;2023-06-26T11:44:42;98012.81;;;30.33;50.13
17505;BME280;8870;50.950;11.762;2023-06-26T11:50:17;98017.84;;;30.31;50.60
17505;BME280;8870;50.950;11.762;2023-06-26T11:55:41;98010.81;;;30.20;50.85
17505;BME280;8870;50.950;11.762;2023-06-26T12:01:15;98008.75;;;30.44;52.19
17505;BME280;8870;50.950;11.762;2023-06-26T12:06:46;98012.59;;;30.49;51.71
17505;BME280;8870;50.950;11.762;2023-06-26T12:12:20;98001.16;;;30.69;51.89
17505;BME280;8870;50.950;11.762;2023-06-26T12:17:40;97990.25;;;30.73;52.22
17505;BME280;8870;50.950;11.762;2023-06-26T12:23:18;97998.44;;;30.97;49.51
17505;BME280;8870;50.950;11.762;2023-06-26T12:28:44;97988.69;;;31.14;48.58
17505;BME280;8870;50.950;11.762;2023-06-26T12:34:19;97991.78;;;31.26;48.48
17505;BME280;8870;50.950;11.762;2023-06-26T12:39:51;97983.56;;;31.21;48.13
17505;BME280;8870;50.950;11.762;2023-06-26T12:45:23;97963.69;;;31.28;47.17
17505;BME280;8870;50.950;11.762;2023-06-26T12:50:43;97979.53;;;31.13;47.38
17505;BME280;8870;50.950;11.762;2023-06-26T12:56:17;97974.78;;;30.67;40.75
17505;BME280;8870;50.950;11.762;2023-06-26T13:01:36;97971.88;;;30.58;49.69
17505;BME280;8870;50.950;11.762;2023-06-26T13:07:07;97964.47;;;30.67;51.04
17505;BME280;8870;50.950;11.762;2023-06-26T13:12:28;97954.22;;;30.96;49.04
17505;BME280;8870;50.950;11.762;2023-06-26T13:17:59;97943.78;;;31.20;47.33
17505;BME280;8870;50.950;11.762;2023-06-26T13:23:17;97935.47;;;30.87;47.77
17505;BME280;8870;50.950;11.762;2023-06-26T13:28:51;97937.38;;;31.34;48.06
17505;BME280;8870;50.950;11.762;2023-06-26T13:34:19;97934.34;;;31.02;46.77
17505;BME280;8870;50.950;11.762;2023-06-26T13:39:52;97931.03;;;30.72;48.92
17505;BME280;8870;50.950;11.762;2023-06-26T13:45:13;97923.84;;;30.38;49.79
17505;BME280;8870;50.950;11.762;2023-06-26T13:50:46;97969.53;;;29.50;54.24
17505;BME280;8870;50.950;11.762;2023-06-26T13:56:05;98013.34;;;28.30;74.04
17505;BME280;8870;50.950;11.762;2023-06-26T14:01:39;98041.47;;;27.32;100.00
17505;BME280;8870;50.950;11.762;2023-06-26T14:06:57;98028.75;;;26.23;100.00
17505;BME280;8870;50.950;11.762;2023-06-26T14:12:29;98027.56;;;25.93;100.00
17505;BME280;8870;50.950;11.762;2023-06-26T14:17:50;98021.16;;;25.77;100.00
17505;BME280;8870;50.950;11.762;2023-06-26T14:23:21;98023.66;;;25.83;100.00
17505;BME280;8870;50.950;11.762;2023-06-26T14:28:40;98025.28;;;25.69;100.00
17505;BME280;8870;50.950;11.762;2023-06-26T14:34:15;98024.94;;;25.55;100.00
17505;BME280;8870;50.950;11.762;2023-06-26T14:39:33;98052.91;;;25.79;100.00
17505;BME280;8870;50.950;11.762;2023-06-26T14:45:05;98018.34;;;25.13;100.00
17505;BME280;8870;50.950;11.762;2023-06-26T14:50:27;98058.06;;;24.74;100.00
17505;BME280;8870;50.950;11.762;2023-06-26T14:55:58;98036.00;;;24.74;100.00
17505;BME280;8870;50.950;11.762;2023-06-26T15:01:30;98052.72;;;24.68;100.00
17505;BME280;8870;50.950;11.762;2023-06-26T15:06:52;98048.94;;;24.46;100.00
17505;BME280;8870;50.950;11.762;2023-06-26T15:12:23;98018.91;;;24.40;100.00
17505;BME280;8870;50.950;11.762;2023-06-26T15:17:42;98023.56;;;24.39;100.00
17505;BME280;8870;50.950;11.762;2023-06-26T15:23:16;98029.78;;;24.89;100.00
17505;BME280;8870;50.950;11.762;2023-06-26T15:28:34;98035.63;;;24.93;100.00
17505;BME280;8870;50.950;11.762;2023-06-26T15:34:05;98038.16;;;25.05;100.00
17505;BME280;8870;50.950;11.762;2023-06-26T15:39:26;98051.22;;;24.82;100.00
17505;BME280;8870;50.950;11.762;2023-06-26T15:44:57;98055.66;;;24.88;100.00
17505;BME280;8870;50.950;11.762;2023-06-26T15:50:16;98065.00;;;24.82;100.00
17505;BME280;8870;50.950;11.762;2023-06-26T15:55:53;98091.28;;;24.68;100.00
17505;BME280;8870;50.950;11.762;2023-06-26T16:01:11;98085.69;;;24.57;100.00
17505;BME280;8870;50.950;11.762;2023-06-26T16:06:43;98087.94;;;24.60;100.00
17505;BME280;8870;50.950;11.762;2023-06-26T16:12:04;98072.31;;;25.04;100.00
17505;BME280;8870;50.950;11.762;2023-06-26T16:17:36;98077.53;;;25.00;100.00
17505;BME280;8870;50.950;11.762;2023-06-26T16:22:54;98080.88;;;25.07;100.00
17505;BME280;8870;50.950;11.762;2023-06-26T16:28:29;98078.78;;;24.82;100.00
17505;BME280;8870;50.950;11.762;2023-06-26T16:33:47;98092.06;;;24.63;100.00
17505;BME280;8870;50.950;11.762;2023-06-26T16:39:18;98092.50;;;24.50;100.00
17505;BME280;8870;50.950;11.762;2023-06-26T16:44:42;98111.19;;;24.47;100.00
17505;BME280;8870;50.950;11.762;2023-06-26T16:50:15;98096.78;;;24.68;100.00
17505;BME280;8870;50.950;11.762;2023-06-26T16:55:34;98099.50;;;24.90;100.00
17505;BME280;8870;50.950;11.762;2023-06-26T17:01:09;98112.91;;;25.14;100.00
17505;BME280;8870;50.950;11.762;2023-06-26T17:06:27;98110.91;;;25.04;100.00
17505;BME280;8870;50.950;11.762;2023-06-26T17:11:59;98120.97;;;24.88;100.00
17505;BME280;8870;50.950;11.762;2023-06-26T17:17:21;98142.16;;;24.87;100.00
17505;BME280;8870;50.950;11.762;2023-06-26T17:22:52;98131.94;;;24.83;100.00
17505;BME280;8870;50.950;11.762;2023-06-26T17:28:13;98128.38;;;24.55;100.00
17505;BME280;8870;50.950;11.762;2023-06-26T17:33:47;98133.31;;;24.30;100.00
17505;BME280;8870;50.950;11.762;2023-06-26T17:39:05;98142.16;;;24.33;100.00
17505;BME280;8870;50.950;11.762;2023-06-26T17:44:36;98147.63;;;24.05;100.00
17505;BME280;8870;50.950;11.762;2023-06-26T17:49:57;98162.78;;;24.08;100.00
17505;BME280;8870;50.950;11.762;2023-06-26T17:55:29;98169.34;;;23.84;100.00
17505;BME280;8870;50.950;11.762;2023-06-26T18:00:47;98176.97;;;23.60;100.00
17505;BME280;8870;50.950;11.762;2023-06-26T18:06:21;98180.06;;;23.47;100.00
17505;BME280;8870;50.950;11.762;2023-06-26T18:11:39;98181.72;;;23.48;100.00
17505;BME280;8870;50.950;11.762;2023-06-26T18:17:10;98186.59;;;23.23;100.00
17505;BME280;8870;50.950;11.762;2023-06-26T18:22:31;98206.97;;;23.11;100.00
17505;BME280;8870;50.950;11.762;2023-06-26T18:28:02;98201.25;;;23.00;100.00
17505;BME280;8870;50.950;11.762;2023-06-26T18:33:20;98206.00;;;22.88;100.00
17505;BME280;8870;50.950;11.762;2023-06-26T18:38:54;98203.66;;;22.80;100.00
17505;BME280;8870;50.950;11.762;2023-06-26T18:44:12;98234.00;;;22.73;100.00
17505;BME280;8870;50.950;11.762;2023-06-26T18:49:43;98225.00;;;22.60;100.00
17505;BME280;8870;50.950;11.762;2023-06-26T18:55:06;98232.69;;;22.46;100.00
17505;BME280;8870;50.950;11.762;2023-06-26T19:00:39;98239.00;;;22.35;100.00
17505;BME280;8870;50.950;11.762;2023-06-26T19:05:58;98241.06;;;22.28;100.00
17505;BME280;8870;50.950;11.762;2023-06-26T19:11:32;98246.31;;;22.17;100.00
17505;BME280;8870;50.950;11.762;2023-06-26T19:16:50;98260.78;;;22.01;100.00
17505;BME280;8870;50.950;11.762;2023-06-26T19:22:24;98272.22;;;21.74;100.00
17505;BME280;8870;50.950;11.762;2023-06-26T19:27:45;98279.00;;;21.60;100.00
17505;BME280;8870;50.950;11.762;2023-06-26T19:33:16;98295.63;;;21.46;100.00
17505;BME280;8870;50.950;11.762;2023-06-26T19:38:34;98292.63;;;21.36;100.00
17505;BME280;8870;50.950;11.762;2023-06-26T19:44:08;98311.28;;;21.15;100.00
17505;BME280;8870;50.950;11.762;2023-06-26T19:49:40;98326.38;;;21.06;100.00
17505;BME280;8870;50.950;11.762;2023-06-26T19:54:59;98320.25;;;20.92;100.00
17505;BME280;8870;50.950;11.762;2023-06-26T20:00:33;98326.72;;;20.79;100.00
17505;BME280;8870;50.950;11.762;2023-06-26T20:05:52;98329.59;;;20.66;100.00
17505;BME280;8870;50.950;11.762;2023-06-26T20:11:25;98336.44;;;20.56;100.00
17505;BME280;8870;50.950;11.762;2023-06-26T20:16:46;98349.16;;;20.51;100.00
17505;BME280;8870;50.950;11.762;2023-06-26T20:22:17;98344.19;;;20.41;100.00
17505;BME280;8870;50.950;11.762;2023-06-26T20:27:35;98343.44;;;20.33;100.00
17505;BME280;8870;50.950;11.762;2023-06-26T20:33:10;98357.19;;;20.27;100.00
17505;BME280;8870;50.950;11.762;2023-06-26T20:38:28;98365.06;;;20.16;100.00
17505;BME280;8870;50.950;11.762;2023-06-26T20:44:00;98351.03;;;20.13;100.00
17505;BME280;8870;50.950;11.762;2023-06-26T20:49:35;98362.09;;;19.99;100.00
17505;BME280;8870;50.950;11.762;2023-06-26T20:54:54;98377.09;;;19.90;100.00
17505;BME280;8870;50.950;11.762;2023-06-26T21:00:25;98370.78;;;19.90;100.00
17505;BME280;8870;50.950;11.762;2023-06-26T21:05:46;98385.94;;;19.85;100.00
17505;BME280;8870;50.950;11.762;2023-06-26T21:11:18;98388.06;;;19.83;100.00
17505;BME280;8870;50.950;11.762;2023-06-26T21:16:36;98389.78;;;19.78;100.00
17505;BME280;8870;50.950;11.762;2023-06-26T21:22:10;98394.25;;;19.72;100.00
17505;BME280;8870;50.950;11.762;2023-06-26T21:27:28;98400.38;;;19.67;100.00
17505;BME280;8870;50.950;11.762;2023-06-26T21:32:59;98405.03;;;19.60;100.00
17505;BME280;8870;50.950;11.762;2023-06-26T21:38:20;98405.31;;;19.52;100.00
17505;BME280;8870;50.950;11.762;2023-06-26T21:43:51;98401.31;;;19.48;100.00
17505;BME280;8870;50.950;11.762;2023-06-26T21:49:22;98397.19;;;19.38;100.00
17505;BME280;8870;50.950;11.762;2023-06-26T21:54:43;98397.22;;;19.32;100.00
17505;BME280;8870;50.950;11.762;2023-06-26T22:00:15;98398.13;;;19.19;100.00
17505;BME280;8870;50.950;11.762;2023-06-26T22:05:33;98413.31;;;19.08;100.00
17505;BME280;8870;50.950;11.762;2023-06-26T22:11:08;98413.78;;;18.98;100.00
17505;BME280;8870;50.950;11.762;2023-06-26T22:16:26;98421.53;;;18.94;100.00
17505;BME280;8870;50.950;11.762;2023-06-26T22:21:58;98422.63;;;18.87;100.00
17505;BME280;8870;50.950;11.762;2023-06-26T22:27:19;98421.78;;;18.79;100.00
17505;BME280;8870;50.950;11.762;2023-06-26T22:32:51;98430.44;;;18.70;100.00
17505;BME280;8870;50.950;11.762;2023-06-26T22:38:09;98432.31;;;18.62;100.00
17505;BME280;8870;50.950;11.762;2023-06-26T22:43:44;98432.34;;;18.49;100.00
17505;BME280;8870;50.950;11.762;2023-06-26T22:49:15;98434.25;;;18.42;100.00
17505;BME280;8870;50.950;11.762;2023-06-26T22:54:33;98437.81;;;18.36;100.00
17505;BME280;8870;50.950;11.762;2023-06-26T23:00:08;98434.06;;;18.16;100.00
17505;BME280;8870;50.950;11.762;2023-06-26T23:05:26;98444.75;;;17.98;100.00
17505;BME280;8870;50.950;11.762;2023-06-26T23:10:58;98445.56;;;17.92;100.00
17505;BME280;8870;50.950;11.762;2023-06-26T23:16:19;98449.97;;;17.86;100.00
17505;BME280;8870;50.950;11.762;2023-06-26T23:21:50;98447.00;;;17.81;100.00
17505;BME280;8870;50.950;11.762;2023-06-26T23:27:09;98438.63;;;17.76;100.00
17505;BME280;8870;50.950;11.762;2023-06-26T23:32:44;98449.94;;;17.66;100.00
17505;BME280;8870;50.950;11.762;2023-06-26T23:38:03;98445.28;;;17.60;100.00
17505;BME280;8870;50.950;11.762;2023-06-26T23:43:34;98463.91;;;17.49;100.00
17505;BME280;8870;50.950;11.762;2023-06-26T23:49:08;98450.50;;;17.41;100.00
17505;BME280;8870;50.950;11.762;2023-06-26T23:54:27;98448.56;;;17.35;100.00
17505;BME280;8870;50.950;11.762;2023-06-26T23:59:58;98452.09;;;17.22;100.00
